Harry B. Settoon — WDE5658 — position and weather

sailwx.info

Track history (hours):
 
Tides and Currents Weather Stations Pressure Air Temp Water Temp Dewpoint Dewpoint Depression Visibility Wind Speed Wind Dir Waves Ship Positions

Harry B. Settoon

Owner: Settoon Towing, LLC, Houma, LA. More information available from US FCC via Universal Licensing System and Coast Guard Vessel Documentation Center.

Last reported at 2015-May-05 18:19 UTC. Time now 2015-May-07 06:38 UTC.
Position N 29°33' W 090°54'.

; draft 1.8 m.

Type: Tug. MMSI: 367369920.

Date/timePositionNaut miles runAvg speedWind from/ knotsBaromVisibWave heightAir tempDewpointWater temp
2015-May-05 18:19N 29°33' W 090°54'5 6.4
2015-May-05 17:33N 29°32' W 090°48'5 4.9
2015-May-05 16:33N 29°34' W 090°43'7 6.6
2015-May-05 15:33N 29°27' W 090°43'5 0.7
2015-May-05 08:32N 29°22' W 090°44'7 6.9
2015-May-05 07:33N 29°29' W 090°43'5 5.0
2015-May-05 06:33N 29°34' W 090°44'5 4.7
2015-May-05 05:33N 29°32' W 090°49'  
2015-Apr-26 08:26N 30°08' W 093°19'  
Track history (hours):
 
Tides and Currents Weather Stations Pressure Air Temp Water Temp Dewpoint Dewpoint Depression Visibility Wind Speed Wind Dir Waves Ship Positions

Harry B. Settoon

Owner: Settoon Towing, LLC, Houma, LA. More information available from US FCC via Universal Licensing System and Coast Guard Vessel Documentation Center.

Last reported at 2015-May-05 18:19 UTC. Time now 2015-May-07 06:38 UTC.
Position N 29°33' W 090°54'.

; draft 1.8 m.

Type: Tug. MMSI: 367369920.

Date/timePositionNaut miles runAvg speedWind from/ knotsBaromVisibWave heightAir tempDewpointWater temp
2015-May-05 18:19N 29°33' W 090°54'5 6.4
2015-May-05 17:33N 29°32' W 090°48'5 4.9
2015-May-05 16:33N 29°34' W 090°43'7 6.6
2015-May-05 15:33N 29°27' W 090°43'5 0.7
2015-May-05 08:32N 29°22' W 090°44'7 6.9
2015-May-05 07:33N 29°29' W 090°43'5 5.0
2015-May-05 06:33N 29°34' W 090°44'5 4.7
2015-May-05 05:33N 29°32' W 090°49'  
2015-Apr-26 08:26N 30°08' W 093°19'  

Dump ship's entire track history